Time;durP1;ratioP1;P1;durP2;ratioP2;P2;SDS_P1;SDS_P2;PMS_P1;PMS_P2;Temp;Humidity;BMP_temperature;BMP_pressure;BME280_temperature;BME280_humidity;BME280_pressure;Samples;Min_cycle;Max_cycle;Signal;HPM_P1;HPM_P2
2023/09/14 00:00:46;;;;;;;;;;;;;;;15.74;100.00;102166.41;5203425;28;20298;-76
2023/09/14 00:03:18;;;;;;;;;;;;;;;15.71;100.00;102169.31;5226445;28;19948;-76
2023/09/14 00:05:50;;;;;;;;;;;;;;;15.67;100.00;102163.44;5228473;28;19917;-76
2023/09/14 00:08:21;;;;;;;;;;;;;;;15.64;100.00;102165.47;5225983;28;19912;-76
2023/09/14 00:10:53;;;;;;;;;;;;;;;15.60;100.00;102167.53;5226514;28;19923;-76
2023/09/14 00:13:25;;;;;;;;;;;;;;;15.57;100.00;102165.19;5225384;28;19917;-76
2023/09/14 00:15:56;;;;;;;;;;;;;;;15.50;100.00;102172.78;5222878;28;20389;-76
2023/09/14 00:18:27;;;;;;;;;;;;;;;15.48;100.00;102168.59;5186330;28;1100708;-76
2023/09/14 00:20:58;;;;;;;;;;;;;;;15.43;100.00;102178.72;5210591;28;19916;-76
2023/09/14 00:23:30;;;;;;;;;;;;;;;15.43;100.00;102182.19;5226094;28;20007;-76
2023/09/14 00:26:01;;;;;;;;;;;;;;;15.45;100.00;102174.94;5227110;28;19917;-76
2023/09/14 00:28:32;;;;;;;;;;;;;;;15.42;100.00;102169.09;5225175;28;19921;-76
2023/09/14 00:31:03;;;;;;;;;;;;;;;15.40;100.00;102169.22;5226998;28;19926;-76
2023/09/14 00:33:34;;;;;;;;;;;;;;;15.37;100.00;102168.66;5227073;28;19971;-76
2023/09/14 00:36:06;;;;;;;;;;;;;;;15.33;100.00;102168.91;5224715;28;19979;-76
2023/09/14 00:38:37;;;;;;;;;;;;;;;15.31;100.00;102165.56;5229007;28;20285;-76
2023/09/14 00:41:08;;;;;;;;;;;;;;;15.28;100.00;102165.81;5226379;28;19916;-75
2023/09/14 00:43:40;;;;;;;;;;;;;;;15.27;100.00;102166.78;5226709;28;19932;-75
2023/09/14 00:46:11;;;;;;;;;;;;;;;15.25;100.00;102163.44;5208670;28;19928;-75
2023/09/14 00:48:43;;;;;;;;;;;;;;;15.25;100.00;102168.72;5223882;28;20302;-75
2023/09/14 00:51:14;;;;;;;;;;;;;;;15.23;100.00;102169.81;5225542;28;19921;-75
2023/09/14 00:53:47;;;;;;;;;;;;;;;15.18;100.00;102170.19;5229156;28;19928;-75
2023/09/14 00:56:18;;;;;;;;;;;;;;;15.16;100.00;102163.38;5223122;28;19917;-76
2023/09/14 00:58:50;;;;;;;;;;;;;;;15.13;100.00;102163.63;5223432;28;19913;-75
2023/09/14 01:01:21;;;;;;;;;;;;;;;15.06;100.00;102158.84;5225547;28;19918;-75
2023/09/14 01:03:53;;;;;;;;;;;;;;;15.01;100.00;102157.56;5224251;28;20000;-75
2023/09/14 01:06:27;;;;;;;;;;;;;;;15.01;100.00;102165.47;5226527;28;20326;-75
2023/09/14 01:08:58;;;;;;;;;;;;;;;14.99;100.00;102162.94;5226301;28;19967;-75
2023/09/14 01:11:30;;;;;;;;;;;;;;;14.97;100.00;102158.78;5226881;28;19920;-76
2023/09/14 01:14:14;;;;;;;;;;;;;;;14.94;100.00;102165.16;5226449;28;20419;-75
2023/09/14 01:17:08;;;;;;;;;;;;;;;14.94;100.00;102172.22;5205602;28;20434;-75
2023/09/14 01:19:50;;;;;;;;;;;;;;;14.92;100.00;102176.78;5212345;28;20397;-75
2023/09/14 01:22:41;;;;;;;;;;;;;;;14.91;100.00;102177.75;5223896;28;19924;-75
2023/09/14 01:25:23;;;;;;;;;;;;;;;14.88;100.00;102178.81;5227182;28;19950;-75
2023/09/14 01:28:05;;;;;;;;;;;;;;;14.87;100.00;102173.69;5228787;28;20018;-76
2023/09/14 01:30:40;;;;;;;;;;;;;;;14.83;100.00;102179.22;5226840;28;20275;-76
2023/09/14 01:33:14;;;;;;;;;;;;;;;14.80;100.00;102168.91;5223241;28;20378;-75
2023/09/14 01:36:04;;;;;;;;;;;;;;;14.81;100.00;102167.97;5208595;28;19917;-75
2023/09/14 01:38:36;;;;;;;;;;;;;;;14.77;100.00;102163.91;5226496;28;20367;-76
2023/09/14 01:41:08;;;;;;;;;;;;;;;14.73;100.00;102173.00;5227080;28;19916;-75
2023/09/14 01:43:41;;;;;;;;;;;;;;;14.72;100.00;102166.06;5225836;28;19932;-75
2023/09/14 01:46:13;;;;;;;;;;;;;;;14.71;100.00;102166.19;5218356;28;19918;-75
2023/09/14 01:48:44;;;;;;;;;;;;;;;14.67;100.00;102162.97;5224303;28;19917;-75
2023/09/14 01:51:15;;;;;;;;;;;;;;;14.65;100.00;102164.88;5223804;28;19978;-75
2023/09/14 01:53:47;;;;;;;;;;;;;;;14.63;100.00;102161.53;5228267;28;20531;-75
2023/09/14 01:56:18;;;;;;;;;;;;;;;14.58;100.00;102163.69;5227382;28;19955;-75
2023/09/14 01:58:49;;;;;;;;;;;;;;;14.55;100.00;102163.97;5226621;28;19924;-75
2023/09/14 02:01:20;;;;;;;;;;;;;;;14.51;100.00;102163.38;5226296;28;19979;-75
2023/09/14 02:03:51;;;;;;;;;;;;;;;14.51;100.00;102158.09;5227342;28;19924;-76
2023/09/14 02:06:23;;;;;;;;;;;;;;;14.49;100.00;102167.91;5223124;28;19925;-75
2023/09/14 02:08:54;;;;;;;;;;;;;;;14.50;100.00;102166.94;5224842;28;19971;-76
2023/09/14 02:11:25;;;;;;;;;;;;;;;14.49;100.00;102165.28;5223973;28;19921;-75
2023/09/14 02:13:56;;;;;;;;;;;;;;;14.48;100.00;102165.38;5225267;28;20311;-76
2023/09/14 02:16:27;;;;;;;;;;;;;;;14.47;100.00;102167.19;5222051;28;19918;-76
2023/09/14 02:18:59;;;;;;;;;;;;;;;14.46;100.00;102160.22;5204644;28;20319;-75
2023/09/14 02:21:30;;;;;;;;;;;;;;;14.45;100.00;102157.72;5225503;28;19924;-75
2023/09/14 02:24:01;;;;;;;;;;;;;;;14.41;100.00;102158.94;5224279;28;19920;-75
2023/09/14 02:26:32;;;;;;;;;;;;;;;14.40;100.00;102159.91;5225390;28;19917;-75
2023/09/14 02:29:03;;;;;;;;;;;;;;;14.35;100.00;102154.97;5225176;28;19961;-75
2023/09/14 02:31:35;;;;;;;;;;;;;;;14.32;100.00;102152.59;5219481;28;19921;-76
2023/09/14 02:34:06;;;;;;;;;;;;;;;14.24;100.00;102154.97;5221506;28;19917;-76
2023/09/14 02:36:37;;;;;;;;;;;;;;;14.20;100.00;102154.38;5222628;28;19935;-76
2023/09/14 02:39:08;;;;;;;;;;;;;;;14.17;100.00;102154.66;5219567;28;20008;-76
2023/09/14 02:41:39;;;;;;;;;;;;;;;14.19;100.00;102149.25;5220362;28;19917;-76
2023/09/14 02:44:11;;;;;;;;;;;;;;;14.17;100.00;102144.09;5220807;28;19923;-76
2023/09/14 02:46:42;;;;;;;;;;;;;;;14.16;100.00;102146.84;5220794;28;20532;-76
2023/09/14 02:49:13;;;;;;;;;;;;;;;14.13;100.00;102150.59;5223240;28;20007;-75
2023/09/14 02:51:44;;;;;;;;;;;;;;;14.12;100.00;102149.72;5222693;28;19979;-76
2023/09/14 02:54:15;;;;;;;;;;;;;;;14.12;100.00;102152.34;5221401;28;19957;-75
2023/09/14 02:56:47;;;;;;;;;;;;;;;14.12;100.00;102152.34;5219510;28;20294;-76
2023/09/14 02:59:18;;;;;;;;;;;;;;;14.10;100.00;102149.03;5203646;28;20031;-75
2023/09/14 03:01:49;;;;;;;;;;;;;;;14.10;100.00;102149.03;5221814;28;19916;-75
2023/09/14 03:04:20;;;;;;;;;;;;;;;14.07;100.00;102148.44;5221539;28;20337;-76
2023/09/14 03:06:53;;;;;;;;;;;;;;;14.04;100.00;102143.38;5222303;28;19917;-76
2023/09/14 03:09:24;;;;;;;;;;;;;;;13.98;100.00;102146.50;5221793;28;19917;-75
2023/09/14 03:11:56;;;;;;;;;;;;;;;13.96;100.00;102145.78;5219456;28;20118;-76
2023/09/14 03:14:27;;;;;;;;;;;;;;;13.93;100.00;102144.22;5222219;28;20374;-76
2023/09/14 03:16:58;;;;;;;;;;;;;;;13.91;100.00;102140.88;5221643;28;19943;-76
2023/09/14 03:19:29;;;;;;;;;;;;;;;13.89;100.00;102148.06;5201603;28;19917;-77
2023/09/14 03:22:00;;;;;;;;;;;;;;;13.88;100.00;102144.59;5201441;28;19917;-76
2023/09/14 03:24:32;;;;;;;;;;;;;;;13.87;100.00;102152.63;5220547;28;19914;-76
2023/09/14 03:27:03;;;;;;;;;;;;;;;13.91;100.00;102147.97;5218576;28;20677;-76
2023/09/14 03:29:34;;;;;;;;;;;;;;;13.91;100.00;102148.78;5219295;28;20371;-76
2023/09/14 03:32:05;;;;;;;;;;;;;;;13.92;100.00;102161.00;5218107;28;19929;-76
2023/09/14 03:34:36;;;;;;;;;;;;;;;13.91;100.00;102159.34;5221444;28;19913;-76
2023/09/14 03:37:08;;;;;;;;;;;;;;;13.92;100.00;102153.09;5219527;28;19928;-76
2023/09/14 03:39:39;;;;;;;;;;;;;;;13.91;100.00;102154.06;5219328;28;20456;-77
2023/09/14 03:42:10;;;;;;;;;;;;;;;13.91;100.00;102156.69;5222594;28;19917;-76
2023/09/14 03:44:41;;;;;;;;;;;;;;;13.91;100.00;102153.22;5221416;28;19964;-76
2023/09/14 03:47:13;;;;;;;;;;;;;;;13.89;100.00;102153.34;5222314;28;20007;-76
2023/09/14 03:49:44;;;;;;;;;;;;;;;13.89;100.00;102153.34;5223017;28;19913;-76
2023/09/14 03:52:15;;;;;;;;;;;;;;;13.87;100.00;102152.63;5226362;28;19982;-77
2023/09/14 03:54:46;;;;;;;;;;;;;;;13.85;100.00;102149.25;5224263;28;20302;-76
2023/09/14 03:57:17;;;;;;;;;;;;;;;13.84;100.00;102148.44;5223931;28;19917;-75
2023/09/14 03:59:49;;;;;;;;;;;;;;;13.81;100.00;102153.94;5226365;28;19944;-75
2023/09/14 04:02:20;;;;;;;;;;;;;;;13.78;100.00;102151.53;5230298;28;19941;-75
2023/09/14 04:04:51;;;;;;;;;;;;;;;13.77;100.00;102155.13;5228032;28;19917;-75
2023/09/14 04:07:22;;;;;;;;;;;;;;;13.75;100.00;102151.78;5223892;28;19917;-75
2023/09/14 04:09:54;;;;;;;;;;;;;;;13.73;100.00;102151.06;5225378;28;20366;-76
2023/09/14 04:12:25;;;;;;;;;;;;;;;13.71;100.00;102147.69;5229639;28;20414;-75
2023/09/14 04:14:56;;;;;;;;;;;;;;;13.70;100.00;102142.56;5224203;28;20290;-76
2023/09/14 04:17:28;;;;;;;;;;;;;;;13.68;100.00;102150.59;5229549;28;19931;-76
2023/09/14 04:20:00;;;;;;;;;;;;;;;13.68;100.00;102147.13;5225236;28;20374;-76
2023/09/14 04:22:31;;;;;;;;;;;;;;;13.66;100.00;102146.38;5227715;28;19920;-76
2023/09/14 04:25:02;;;;;;;;;;;;;;;13.63;100.00;102150.91;5222527;28;19916;-76
2023/09/14 04:27:33;;;;;;;;;;;;;;;13.61;100.00;102147.56;5223877;28;19928;-76
2023/09/14 04:30:05;;;;;;;;;;;;;;;13.60;100.00;102145.91;5224839;28;19932;-76
2023/09/14 04:32:36;;;;;;;;;;;;;;;13.61;100.00;102144.94;5225158;28;19925;-76
2023/09/14 04:35:08;;;;;;;;;;;;;;;13.59;100.00;102152.09;5225562;28;19921;-76
2023/09/14 04:37:39;;;;;;;;;;;;;;;13.57;100.00;102148.75;5221147;28;19924;-76
2023/09/14 04:40:11;;;;;;;;;;;;;;;13.53;100.00;102142.06;5220366;28;20101;-76
2023/09/14 04:42:42;;;;;;;;;;;;;;;13.47;100.00;102152.22;5223519;28;19940;-76
2023/09/14 04:45:13;;;;;;;;;;;;;;;13.46;100.00;102148.75;5221430;28;19917;-76
2023/09/14 04:47:44;;;;;;;;;;;;;;;13.45;100.00;102151.47;5220284;28;19927;-76
2023/09/14 04:50:16;;;;;;;;;;;;;;;13.43;100.00;102148.13;5223856;28;20666;-76
2023/09/14 04:52:47;;;;;;;;;;;;;;;13.42;100.00;102146.47;5224311;28;19929;-76
2023/09/14 04:55:18;;;;;;;;;;;;;;;13.43;100.00;102150.78;5218817;28;19921;-76
2023/09/14 04:57:49;;;;;;;;;;;;;;;13.42;100.00;102146.47;5202443;28;19909;-76
2023/09/14 05:00:21;;;;;;;;;;;;;;;13.42;100.00;102154.38;5221376;28;19963;-76
2023/09/14 05:02:53;;;;;;;;;;;;;;;13.38;100.00;102151.97;5203972;28;19916;-76
2023/09/14 05:05:24;;;;;;;;;;;;;;;13.38;100.00;102146.69;5220592;28;19923;-76
2023/09/14 05:07:55;;;;;;;;;;;;;;;13.37;100.00;102149.44;5204559;28;19916;-76
2023/09/14 05:10:27;;;;;;;;;;;;;;;13.36;100.00;102150.38;5220499;28;19916;-76
2023/09/14 05:12:58;;;;;;;;;;;;;;;13.35;100.00;102152.19;5222640;28;19917;-76
2023/09/14 05:15:29;;;;;;;;;;;;;;;13.34;100.00;102155.78;5220897;28;19928;-76
2023/09/14 05:18:00;;;;;;;;;;;;;;;13.35;100.00;102154.00;5222738;28;19956;-76
2023/09/14 05:20:31;;;;;;;;;;;;;;;13.36;100.00;102153.03;5220138;28;20003;-76
2023/09/14 05:23:03;;;;;;;;;;;;;;;13.33;100.00;102154.13;5225235;28;19989;-76
2023/09/14 05:25:34;;;;;;;;;;;;;;;13.34;100.00;102157.59;5224593;28;19913;-76
2023/09/14 05:28:06;;;;;;;;;;;;;;;13.34;100.00;102161.06;5218827;28;19921;-76
2023/09/14 05:30:38;;;;;;;;;;;;;;;13.36;100.00;102163.56;5223211;28;20279;-75
2023/09/14 05:33:10;;;;;;;;;;;;;;;13.37;100.00;102167.84;5219373;28;20007;-76
2023/09/14 05:35:41;;;;;;;;;;;;;;;13.39;100.00;102172.06;5203372;28;19921;-76
2023/09/14 05:38:12;;;;;;;;;;;;;;;13.38;100.00;102173.03;5222085;28;19924;-76
2023/09/14 05:40:43;;;;;;;;;;;;;;;13.42;100.00;102181.53;5199489;28;20355;-75
2023/09/14 05:43:15;;;;;;;;;;;;;;;13.36;100.00;102163.56;5224897;28;20527;-78
2023/09/14 05:45:46;;;;;;;;;;;;;;;13.41;100.00;102179.00;5223263;28;19921;-76
2023/09/14 05:48:17;;;;;;;;;;;;;;;13.43;100.00;102185.00;5218938;28;19940;-76
2023/09/14 05:50:48;;;;;;;;;;;;;;;13.44;100.00;102178.78;5221080;28;20382;-75
2023/09/14 05:53:19;;;;;;;;;;;;;;;13.42;100.00;102175.44;5205780;28;19927;-75
2023/09/14 05:55:53;;;;;;;;;;;;;;;13.47;100.00;102184.66;5225851;28;19913;-75
2023/09/14 05:58:24;;;;;;;;;;;;;;;13.53;100.00;102180.72;5221824;28;19917;-75
2023/09/14 06:00:56;;;;;;;;;;;;;;;13.58;100.00;102186.47;5222218;28;19991;-76
2023/09/14 06:03:27;;;;;;;;;;;;;;;13.63;100.00;102186.94;5216024;28;19917;-75
2023/09/14 06:05:58;;;;;;;;;;;;;;;13.67;100.00;102182.28;5227051;28;19918;-76
2023/09/14 06:08:30;;;;;;;;;;;;;;;13.71;100.00;102183.72;5224105;28;20332;-75
2023/09/14 06:11:01;;;;;;;;;;;;;;;13.77;100.00;102181.47;5205239;28;19922;-75
2023/09/14 06:13:32;;;;;;;;;;;;;;;13.82;100.00;102181.94;5222329;28;19913;-76
2023/09/14 06:16:03;;;;;;;;;;;;;;;13.89;100.00;102184.94;5223387;28;20454;-75
2023/09/14 06:18:34;;;;;;;;;;;;;;;13.97;100.00;102179.06;5225390;28;19936;-76
2023/09/14 06:21:05;;;;;;;;;;;;;;;14.03;100.00;102183.88;5223045;28;19932;-76
2023/09/14 06:23:37;;;;;;;;;;;;;;;14.07;100.00;102185.31;5223118;28;20483;-75
2023/09/14 06:26:08;;;;;;;;;;;;;;;14.15;100.00;102184.72;5228641;28;19913;-75
2023/09/14 06:28:39;;;;;;;;;;;;;;;14.22;100.00;102185.91;5227598;28;20331;-75
2023/09/14 06:31:11;;;;;;;;;;;;;;;14.29;100.00;102181.84;5219836;28;20260;-75
2023/09/14 06:33:42;;;;;;;;;;;;;;;14.38;100.00;102178.44;5220831;28;19943;-75
2023/09/14 06:36:13;;;;;;;;;;;;;;;14.46;100.00;102183.94;5223769;28;19963;-75
2023/09/14 06:38:45;;;;;;;;;;;;;;;14.58;100.00;102180.38;5220188;28;19917;-75
2023/09/14 06:41:16;;;;;;;;;;;;;;;14.72;100.00;102181.06;5219900;28;19924;-75
2023/09/14 06:43:47;;;;;;;;;;;;;;;14.83;100.00;102183.66;5220601;28;19996;-75
2023/09/14 06:46:19;;;;;;;;;;;;;;;14.94;100.00;102188.06;5220540;28;19917;-75
2023/09/14 06:48:50;;;;;;;;;;;;;;;15.02;100.00;102188.25;5215583;28;19956;-75
2023/09/14 06:51:21;;;;;;;;;;;;;;;15.13;100.00;102185.56;5219863;28;19921;-75
2023/09/14 06:53:52;;;;;;;;;;;;;;;15.25;100.00;102189.00;5219474;28;19917;-75
2023/09/14 06:56:23;;;;;;;;;;;;;;;15.38;100.00;102180.88;5228594;28;19994;-75
2023/09/14 06:58:55;;;;;;;;;;;;;;;15.49;100.00;102183.44;5224844;28;19917;-75
2023/09/14 07:01:28;;;;;;;;;;;;;;;15.62;100.00;102185.91;5226431;28;19952;-75
2023/09/14 07:03:59;;;;;;;;;;;;;;;15.74;100.00;102190.19;5222112;28;19925;-75
2023/09/14 07:06:31;;;;;;;;;;;;;;;15.90;100.00;102193.16;5223235;28;19924;-75
2023/09/14 07:09:04;;;;;;;;;;;;;;;16.07;100.00;102190.91;5225981;28;19917;-75
2023/09/14 07:11:35;;;;;;;;;;;;;;;16.21;100.00;102182.59;5224559;28;20430;-75
2023/09/14 07:14:06;;;;;;;;;;;;;;;16.37;100.00;102192.69;5223087;28;20063;-75
2023/09/14 07:16:37;;;;;;;;;;;;;;;16.50;100.00;102188.78;5225074;28;19921;-75
2023/09/14 07:19:08;;;;;;;;;;;;;;;16.66;100.00;102180.31;5221709;28;19921;-76
2023/09/14 07:21:40;;;;;;;;;;;;;;;16.78;100.00;102179.28;5204285;28;19925;-75
2023/09/14 07:24:11;;;;;;;;;;;;;;;16.88;100.00;102181.91;5224760;28;20264;-75
2023/09/14 07:26:42;;;;;;;;;;;;;;;17.01;100.00;102187.78;5226747;28;19918;-75
2023/09/14 07:29:13;;;;;;;;;;;;;;;17.12;100.00;102186.81;5226351;28;19917;-75
2023/09/14 07:31:44;;;;;;;;;;;;;;;17.24;100.00;102183.03;5228559;28;19983;-75
2023/09/14 07:34:16;;;;;;;;;;;;;;;17.38;100.00;102183.56;5205507;28;19933;-76
2023/09/14 07:36:47;;;;;;;;;;;;;;;17.52;100.00;102191.06;5225149;28;19917;-76
2023/09/14 07:39:18;;;;;;;;;;;;;;;17.66;100.00;102195.91;5228710;28;19943;-76
2023/09/14 07:41:55;;;;;;;;;;;;;;;17.81;100.00;102195.50;5226611;28;19913;-76
2023/09/14 07:44:26;;;;;;;;;;;;;;;17.96;100.00;102194.03;5230484;28;19921;-75
2023/09/14 07:46:57;;;;;;;;;;;;;;;18.09;100.00;102204.31;5226564;28;19917;-75
2023/09/14 07:49:28;;;;;;;;;;;;;;;18.17;100.00;102207.06;5225541;28;19917;-75
2023/09/14 07:51:59;;;;;;;;;;;;;;;18.25;100.00;102199.19;5222878;28;20367;-76
2023/09/14 07:54:34;;;;;;;;;;;;;;;18.36;100.00;102203.47;5227381;28;19913;-76
2023/09/14 07:57:05;;;;;;;;;;;;;;;18.46;100.00;102207.75;5226704;28;19924;-76
2023/09/14 07:59:36;;;;;;;;;;;;;;;18.56;100.00;102207.72;5228832;28;20385;-76
2023/09/14 08:02:08;;;;;;;;;;;;;;;18.66;100.00;102215.59;5216384;28;20055;-75
2023/09/14 08:04:39;;;;;;;;;;;;;;;18.77;100.00;102207.44;5224171;28;19917;-75
2023/09/14 08:07:10;;;;;;;;;;;;;;;18.87;100.00;102208.22;5226070;28;19941;-75
2023/09/14 08:09:43;;;;;;;;;;;;;;;18.96;100.00;102207.31;5230290;28;20394;-75
2023/09/14 08:12:14;;;;;;;;;;;;;;;19.02;100.00;102197.91;5229911;28;19921;-75
2023/09/14 08:14:46;;;;;;;;;;;;;;;19.11;100.00;102199.63;5209068;28;19928;-75
2023/09/14 08:17:17;;;;;;;;;;;;;;;19.22;100.00;102203.88;5227014;28;19913;-75
2023/09/14 08:19:48;;;;;;;;;;;;;;;19.33;100.00;102202.81;5226563;28;19923;-75
2023/09/14 08:22:22;;;;;;;;;;;;;;;19.39;100.00;102204.81;5227056;28;19917;-75
2023/09/14 08:24:54;;;;;;;;;;;;;;;19.50;100.00;102209.06;5226227;28;19940;-76
2023/09/14 08:27:25;;;;;;;;;;;;;;;19.64;100.00;102198.72;5229576;28;19913;-76
2023/09/14 08:29:56;;;;;;;;;;;;;;;19.80;100.00;102205.13;5226158;28;19921;-76
2023/09/14 08:32:27;;;;;;;;;;;;;;;19.91;100.00;102205.69;5229324;28;19971;-76
2023/09/14 08:35:18;;;;;;;;;;;;;;;20.05;100.00;102211.44;5230513;28;19918;-76
2023/09/14 08:37:53;;;;;;;;;;;;;;;20.20;100.00;102217.81;5225245;28;19932;-76
2023/09/14 08:40:24;;;;;;;;;;;;;;;20.32;100.00;102218.34;5228853;28;20306;-76
2023/09/14 08:42:56;;;;;;;;;;;;;;;20.40;100.00;102215.72;5205386;28;19920;-76
2023/09/14 08:45:30;;;;;;;;;;;;;;;20.47;100.00;102214.06;5222000;28;19928;-75
2023/09/14 08:48:02;;;;;;;;;;;;;;;20.53;100.00;102212.63;5223876;28;19924;-76
2023/09/14 08:50:34;;;;;;;;;;;;;;;20.59;100.00;102210.13;5206129;28;20367;-75
2023/09/14 08:53:05;;;;;;;;;;;;;;;20.70;100.00;102216.16;5221257;28;19932;-76
2023/09/14 08:55:37;;;;;;;;;;;;;;;20.81;100.00;102211.34;5221160;28;19928;-76
2023/09/14 08:58:10;;;;;;;;;;;;;;;20.94;100.00;102207.38;5221278;28;20298;-76
2023/09/14 09:00:42;;;;;;;;;;;;;;;21.01;100.00;102205.72;5221056;28;19963;-76
2023/09/14 09:03:13;;;;;;;;;;;;;;;21.06;100.00;102201.56;5204345;28;19917;-76
2023/09/14 09:05:45;;;;;;;;;;;;;;;21.13;100.00;102207.03;5220220;28;19960;-76
2023/09/14 09:08:17;;;;;;;;;;;;;;;21.17;100.00;102204.88;5221842;28;19921;-76
2023/09/14 09:10:48;;;;;;;;;;;;;;;21.14;100.00;102209.56;5224727;28;19913;-76
2023/09/14 09:13:19;;;;;;;;;;;;;;;21.11;100.00;102209.06;5217368;28;19917;-76
2023/09/14 09:15:50;;;;;;;;;;;;;;;21.11;100.00;102203.72;5224281;28;19920;-76
2023/09/14 09:18:22;;;;;;;;;;;;;;;21.19;100.00;102197.56;5221511;28;19928;-76
2023/09/14 09:20:53;;;;;;;;;;;;;;;21.24;100.00;102196.03;5219723;28;20438;-75
2023/09/14 09:23:25;;;;;;;;;;;;;;;21.36;100.00;102191.22;5218928;28;20322;-75
2023/09/14 09:25:56;;;;;;;;;;;;;;;21.44;100.00;102198.38;5222159;28;19921;-76
2023/09/14 09:28:27;;;;;;;;;;;;;;;21.41;100.00;102201.41;5220614;28;19919;-76
2023/09/14 09:30:59;;;;;;;;;;;;;;;21.32;100.00;102197.88;5218186;28;20003;-75
2023/09/14 09:33:37;;;;;;;;;;;;;;;21.27;100.00;102189.56;5220535;28;20035;-76
2023/09/14 09:36:17;;;;;;;;;;;;;;;21.29;100.00;102199.06;5202760;28;20264;-76
2023/09/14 09:38:52;;;;;;;;;;;;;;;21.45;100.00;102197.41;5219848;28;20379;-76
2023/09/14 09:41:24;;;;;;;;;;;;;;;21.61;100.00;102200.88;5215005;28;19975;-76
2023/09/14 09:43:55;;;;;;;;;;;;;;;21.82;100.00;102199.47;5219118;28;19916;-76
2023/09/14 09:46:26;;;;;;;;;;;;;;;21.89;99.21;102200.47;5219612;28;19933;-76
2023/09/14 09:48:58;;;;;;;;;;;;;;;21.90;99.89;102194.13;5217996;28;20113;-76
2023/09/14 09:51:32;;;;;;;;;;;;;;;21.88;98.89;102185.47;5221183;28;19962;-76
2023/09/14 09:54:04;;;;;;;;;;;;;;;21.90;96.57;102185.31;5222376;28;19917;-76
2023/09/14 09:56:38;;;;;;;;;;;;;;;21.91;90.10;102185.13;5218373;28;20024;-76
2023/09/14 09:59:10;;;;;;;;;;;;;;;21.89;94.68;102191.63;5220362;28;19936;-76
2023/09/14 10:01:44;;;;;;;;;;;;;;;21.84;98.96;102186.81;5200171;28;19921;-76
2023/09/14 10:04:16;;;;;;;;;;;;;;;21.92;95.22;102191.28;5203837;28;19917;-76
2023/09/14 10:06:51;;;;;;;;;;;;;;;22.07;98.67;102190.38;5218157;28;20011;-77
2023/09/14 10:09:24;;;;;;;;;;;;;;;22.25;93.64;102181.34;5216526;28;19917;-77
2023/09/14 10:11:57;;;;;;;;;;;;;;;22.44;91.03;102178.22;5218383;28;19925;-76
2023/09/14 10:14:30;;;;;;;;;;;;;;;22.47;86.27;102180.56;5219401;28;20329;-77
2023/09/14 10:17:05;;;;;;;;;;;;;;;22.52;82.92;102182.69;5216311;28;19917;-76
2023/09/14 10:19:37;;;;;;;;;;;;;;;22.57;90.41;102178.47;5219317;28;19940;-76
2023/09/14 10:22:08;;;;;;;;;;;;;;;22.70;87.75;102177.06;5215615;28;19967;-77
2023/09/14 10:24:40;;;;;;;;;;;;;;;22.75;80.66;102174.69;5225694;28;19917;-77
2023/09/14 10:27:13;;;;;;;;;;;;;;;22.79;85.57;102173.31;5217954;28;19932;-76
2023/09/14 10:29:44;;;;;;;;;;;;;;;22.82;85.20;102176.47;5219427;28;19967;-76
2023/09/14 10:32:17;;;;;;;;;;;;;;;22.94;86.57;102176.91;5217372;28;20020;-77
2023/09/14 10:34:49;;;;;;;;;;;;;;;23.10;79.63;102177.78;5218249;28;19987;-77
2023/09/14 10:37:21;;;;;;;;;;;;;;;23.23;68.69;102175.34;5217870;28;19917;-77
2023/09/14 10:39:53;;;;;;;;;;;;;;;23.47;77.88;102164.38;5220200;28;20390;-76
2023/09/14 10:42:25;;;;;;;;;;;;;;;23.51;73.25;102165.69;5222430;28;19998;-76
2023/09/14 10:44:56;;;;;;;;;;;;;;;23.51;78.79;102168.34;5220266;28;19964;-76
2023/09/14 10:47:33;;;;;;;;;;;;;;;23.57;77.35;102164.13;5219347;28;19917;-77
2023/09/14 10:50:06;;;;;;;;;;;;;;;23.70;78.96;102158.97;5218373;28;20394;-76
2023/09/14 10:52:37;;;;;;;;;;;;;;;23.74;79.51;102154.09;5216106;28;19923;-76
2023/09/14 10:55:09;;;;;;;;;;;;;;;23.68;81.22;102152.16;5217625;28;19917;-76
2023/09/14 10:57:41;;;;;;;;;;;;;;;23.60;79.58;102150.38;5208680;28;19964;-76
2023/09/14 11:00:31;;;;;;;;;;;;;;;23.59;79.93;102156.72;5215638;28;19940;-76
2023/09/14 11:03:03;;;;;;;;;;;;;;;23.55;78.16;102153.59;5223051;28;20315;-75
2023/09/14 11:06:02;;;;;;;;;;;;;;;23.46;78.37;102141.34;5222209;28;19947;-75
2023/09/14 11:08:53;;;;;;;;;;;;;;;23.37;84.16;102139.75;5217878;28;19921;-76
2023/09/14 11:11:36;;;;;;;;;;;;;;;23.35;81.35;102146.31;5217705;28;19921;-75
2023/09/14 11:14:14;;;;;;;;;;;;;;;23.54;81.26;102143.09;5222233;28;19953;-75
2023/09/14 11:16:47;;;;;;;;;;;;;;;23.64;81.80;102140.13;5221067;28;20410;-76
2023/09/14 11:19:30;;;;;;;;;;;;;;;23.64;74.41;102140.97;5224160;28;20177;-76
2023/09/14 11:22:03;;;;;;;;;;;;;;;23.67;73.72;102143.28;5223640;28;20290;-76
2023/09/14 11:24:35;;;;;;;;;;;;;;;23.75;74.72;102145.03;5223101;28;19913;-76
2023/09/14 11:27:06;;;;;;;;;;;;;;;23.80;76.91;102150.69;5223712;28;20465;-75
2023/09/14 11:29:42;;;;;;;;;;;;;;;23.77;72.48;102145.69;5223360;28;19917;-76
2023/09/14 11:32:20;;;;;;;;;;;;;;;23.78;72.30;102145.50;5229462;28;19925;-76
2023/09/14 11:34:55;;;;;;;;;;;;;;;23.75;76.06;102147.72;5206220;28;20433;-76
2023/09/14 11:37:26;;;;;;;;;;;;;;;23.82;76.15;102148.63;5224812;28;20000;-76
2023/09/14 11:39:58;;;;;;;;;;;;;;;23.93;74.84;102147.34;5222581;28;19919;-76
2023/09/14 11:42:49;;;;;;;;;;;;;;;23.99;66.97;102141.25;5224584;28;19917;-76
2023/09/14 11:45:21;;;;;;;;;;;;;;;24.16;60.25;102134.63;5224185;28;20340;-76
2023/09/14 11:47:53;;;;;;;;;;;;;;;24.20;68.71;102140.44;5225044;28;19917;-76
2023/09/14 11:50:25;;;;;;;;;;;;;;;24.21;70.05;102139.44;5222598;28;19917;-76
2023/09/14 11:52:57;;;;;;;;;;;;;;;24.28;68.90;102134.97;5224018;28;20410;-76
2023/09/14 11:55:30;;;;;;;;;;;;;;;24.27;68.28;102144.03;5226092;28;19913;-76
2023/09/14 11:58:02;;;;;;;;;;;;;;;24.16;73.37;102134.63;5223630;28;20371;-76
2023/09/14 12:00:37;;;;;;;;;;;;;;;24.08;74.30;102137.44;5225319;28;19972;-76
2023/09/14 12:03:08;;;;;;;;;;;;;;;24.03;75.26;102135.31;5224059;28;19917;-76
2023/09/14 12:05:40;;;;;;;;;;;;;;;23.97;74.06;102137.91;5200477;28;19921;-76
2023/09/14 12:08:13;;;;;;;;;;;;;;;23.84;71.94;102127.06;5217063;28;19960;-75
2023/09/14 12:10:45;;;;;;;;;;;;;;;23.83;74.80;102131.59;5221107;28;19917;-76
2023/09/14 12:13:17;;;;;;;;;;;;;;;23.78;74.51;102137.47;5222017;28;20112;-74
2023/09/14 12:15:56;;;;;;;;;;;;;;;23.80;74.62;102126.59;5223630;28;20498;-74
2023/09/14 12:18:38;;;;;;;;;;;;;;;23.77;74.11;102126.97;5222055;28;20369;-74
2023/09/14 12:21:10;;;;;;;;;;;;;;;23.74;72.48;102128.16;5221442;28;19914;-74
2023/09/14 12:23:43;;;;;;;;;;;;;;;23.76;73.70;102128.00;5220617;28;20011;-75
2023/09/14 12:26:15;;;;;;;;;;;;;;;23.74;71.06;102130.84;5224302;28;19944;-75
2023/09/14 12:28:54;;;;;;;;;;;;;;;23.70;73.53;102129.53;5214247;28;21605;-75
2023/09/14 12:31:26;;;;;;;;;;;;;;;23.76;75.24;102130.66;5218916;28;20342;-75
2023/09/14 12:33:58;;;;;;;;;;;;;;;23.76;71.37;102119.97;5217250;28;20041;-75
2023/09/14 12:36:30;;;;;;;;;;;;;;;23.70;69.72;102124.19;5223168;28;19913;-75
2023/09/14 12:39:01;;;;;;;;;;;;;;;23.68;72.27;102114.72;5220621;28;19913;-75
2023/09/14 12:41:33;;;;;;;;;;;;;;;23.72;73.12;102110.66;5221738;28;19940;-73
2023/09/14 12:44:04;;;;;;;;;;;;;;;23.72;71.65;102114.16;5201965;28;19917;-73
2023/09/14 12:46:37;;;;;;;;;;;;;;;23.71;73.68;102114.31;5220763;28;19920;-73
2023/09/14 12:49:13;;;;;;;;;;;;;;;23.70;72.37;102107.31;5220116;28;20299;-73
2023/09/14 12:51:48;;;;;;;;;;;;;;;23.70;70.64;102116.16;5222465;28;19975;-73
2023/09/14 12:54:26;;;;;;;;;;;;;;;23.73;70.75;102112.28;5219633;28;19917;-73